Terminal Aerodrome Forecast
Issued by NWS

Home | Current Version | Previous Version | Text Only | Print | Product List | Glossary On
Versions: 1 2 3 4 5 6 7 8 9 10 11 12 13 14 15 16 17 18 19 20 21 22 23 24 25 26 27 28 29 30 31
000
FTUS44 KHGX 200909 AAB
TAFCXO
TAF AMD
KCXO 200909Z 2009/2106 16008KT P6SM OVC009
      TEMPO 2009/2010 -TSRA BKN010CB
     FM201000 16007KT 6SM BR VCTS SCT009 BKN012CB
      TEMPO 2010/2014 VRB25KT 3SM TSRA BR
     FM201600 10005KT 4SM SHRA VCTS BKN010CB
     FM202200 10005KT 6SM -RA SCT020 BKN035 BKN120
     FM210200 00000KT P6SM SCT015 BKN250=

USA.gov is the U.S. government's official web portal to all federal, state and local government web resources and services.